Time;durP1;ratioP1;P1;durP2;ratioP2;P2;SDS_P1;SDS_P2;PMS_P1;PMS_P2;Temp;Humidity;BMP_temperature;BMP_pressure;BME280_temperature;BME280_humidity;BME280_pressure;Samples;Min_cycle;Max_cycle;Signal;HPM_P1;HPM_P2
2021/12/30 15:29:08;;;;;;;2.03;0.90;;;;;;;;;;5140378;27;20099;-74
2021/12/30 15:31:34;;;;;;;1.80;0.93;;;;;;;;;;5149532;27;20080;-74
2021/12/30 15:34:00;;;;;;;2.83;0.85;;;;;;;;;;5114085;28;20038;-75
2021/12/30 15:36:26;;;;;;;2.05;1.00;;;;;;;;;;5129918;28;20063;-75
2021/12/30 15:38:52;;;;;;;1.73;0.82;;;;;;;;;;5130313;28;20023;-75
2021/12/30 15:41:18;;;;;;;1.60;1.05;;;;;;;;;;5129759;28;20050;-75
2021/12/30 15:43:46;;;;;;;2.22;0.80;;;;;;;;;;5130232;28;20490;-75
2021/12/30 15:46:14;;;;;;;1.27;0.70;;;;;;;;;;5129865;28;20102;-75
2021/12/30 15:48:40;;;;;;;1.58;0.77;;;;;;;;;;5129908;27;20399;-75
2021/12/30 15:51:06;;;;;;;5.47;1.35;;;;;;;;;;5129387;28;20163;-75
2021/12/30 15:53:32;;;;;;;1.98;1.00;;;;;;;;;;5114746;28;20020;-75
2021/12/30 15:55:58;;;;;;;2.50;1.02;;;;;;;;;;5129113;28;20026;-75
2021/12/30 15:58:25;;;;;;;1.88;1.10;;;;;;;;;;5129488;28;20078;-75
2021/12/30 16:00:51;;;;;;;2.95;0.93;;;;;;;;;;5129162;28;20110;-75
2021/12/30 16:03:17;;;;;;;1.92;0.95;;;;;;;;;;5129412;28;20066;-75
2021/12/30 16:05:43;;;;;;;2.95;1.23;;;;;;;;;;5128837;28;20027;-75
2021/12/30 16:08:11;;;;;;;2.53;1.13;;;;;;;;;;5128124;28;20059;-75
2021/12/30 16:10:38;;;;;;;2.30;1.10;;;;;;;;;;5129387;28;20486;-75
2021/12/30 16:13:04;;;;;;;1.88;0.98;;;;;;;;;;5129465;28;20080;-76
2021/12/30 16:15:31;;;;;;;2.72;1.13;;;;;;;;;;5129198;28;20038;-75
2021/12/30 16:17:57;;;;;;;1.35;0.90;;;;;;;;;;5128572;28;20023;-75
2021/12/30 16:20:23;;;;;;;1.90;1.10;;;;;;;;;;5128700;28;20027;-76
2021/12/30 16:22:49;;;;;;;2.67;1.05;;;;;;;;;;5129384;28;20061;-75
2021/12/30 16:25:18;;;;;;;2.03;0.95;;;;;;;;;;5129427;27;20030;-75
2021/12/30 16:27:45;;;;;;;3.08;0.82;;;;;;;;;;5129262;27;20060;-75
2021/12/30 16:30:14;;;;;;;1.52;0.95;;;;;;;;;;5129714;27;20027;-75
2021/12/30 16:32:40;;;;;;;1.60;1.15;;;;;;;;;;5130030;27;20386;-75
2021/12/30 16:35:06;;;;;;;1.13;0.82;;;;;;;;;;5128116;27;20020;-75
2021/12/30 16:37:33;;;;;;;1.75;1.05;;;;;;;;;;5129807;27;20016;-75
2021/12/30 16:40:00;;;;;;;1.90;0.98;;;;;;;;;;5118546;27;20154;-75
2021/12/30 16:42:26;;;;;;;3.13;1.20;;;;;;;;;;5115506;28;20031;-75
2021/12/30 16:44:52;;;;;;;2.05;1.08;;;;;;;;;;5115200;28;20059;-75
2021/12/30 16:47:19;;;;;;;2.10;1.17;;;;;;;;;;5112182;28;20288;-75
2021/12/30 16:49:46;;;;;;;1.77;1.10;;;;;;;;;;5113835;28;20489;-75
2021/12/30 16:52:12;;;;;;;1.90;1.00;;;;;;;;;;5113589;28;20027;-75
2021/12/30 16:54:38;;;;;;;1.98;1.25;;;;;;;;;;5113885;28;20015;-75
2021/12/30 16:57:05;;;;;;;3.83;1.20;;;;;;;;;;5113739;28;20498;-75
2021/12/30 16:59:32;;;;;;;1.92;1.27;;;;;;;;;;5113425;28;20106;-75
2021/12/30 17:01:59;;;;;;;2.10;1.35;;;;;;;;;;5113566;28;20024;-75
2021/12/30 17:04:25;;;;;;;2.15;1.00;;;;;;;;;;5111384;28;20034;-75
2021/12/30 17:06:51;;;;;;;3.30;1.20;;;;;;;;;;5114795;28;20042;-75
2021/12/30 17:09:22;;;;;;;2.10;1.10;;;;;;;;;;5115381;28;20027;-75
2021/12/30 17:11:48;;;;;;;2.78;0.98;;;;;;;;;;5113785;28;20015;-75
2021/12/30 17:14:14;;;;;;;2.63;1.60;;;;;;;;;;5115142;28;20020;-75
2021/12/30 17:16:40;;;;;;;2.80;1.50;;;;;;;;;;5115096;28;20054;-75
2021/12/30 17:19:06;;;;;;;2.85;1.70;;;;;;;;;;5115007;28;20482;-75
2021/12/30 17:21:35;;;;;;;2.40;1.50;;;;;;;;;;5113451;28;20157;-75
2021/12/30 17:24:01;;;;;;;2.35;1.30;;;;;;;;;;5115106;28;20035;-75
2021/12/30 17:26:27;;;;;;;3.28;1.42;;;;;;;;;;5115137;28;20016;-75
2021/12/30 17:28:53;;;;;;;2.17;1.65;;;;;;;;;;5114657;28;20144;-75
2021/12/30 17:31:20;;;;;;;2.75;1.48;;;;;;;;;;5113297;28;20046;-75
2021/12/30 17:33:47;;;;;;;3.40;1.45;;;;;;;;;;5115028;28;20062;-75
2021/12/30 17:36:13;;;;;;;4.07;1.50;;;;;;;;;;5114526;28;20051;-75
2021/12/30 17:38:39;;;;;;;3.08;1.60;;;;;;;;;;5114288;28;20387;-75
2021/12/30 17:41:05;;;;;;;4.32;1.90;;;;;;;;;;5114414;28;20024;-75
2021/12/30 17:43:31;;;;;;;2.38;1.65;;;;;;;;;;5114504;28;20122;-75
2021/12/30 17:45:57;;;;;;;2.72;1.80;;;;;;;;;;5112991;28;20030;-75
2021/12/30 17:48:24;;;;;;;3.03;1.70;;;;;;;;;;5114373;28;20259;-75
2021/12/30 17:50:53;;;;;;;3.75;2.00;;;;;;;;;;5113786;28;20021;-75
2021/12/30 17:53:20;;;;;;;2.53;1.83;;;;;;;;;;5113146;28;20051;-75
2021/12/30 17:55:46;;;;;;;5.50;1.92;;;;;;;;;;5114370;27;20022;-75
2021/12/30 17:58:12;;;;;;;2.70;1.80;;;;;;;;;;5114106;28;20035;-75
2021/12/30 18:00:41;;;;;;;5.47;1.95;;;;;;;;;;5112918;28;20019;-75
2021/12/30 18:03:07;;;;;;;3.03;1.75;;;;;;;;;;5114007;28;20047;-75
2021/12/30 18:05:33;;;;;;;4.70;2.13;;;;;;;;;;5112802;28;20023;-75
2021/12/30 18:07:59;;;;;;;3.50;1.92;;;;;;;;;;5114118;28;20471;-75
2021/12/30 18:10:27;;;;;;;4.25;1.95;;;;;;;;;;5114147;28;20386;-75
2021/12/30 18:12:53;;;;;;;4.35;2.00;;;;;;;;;;5114002;28;20553;-75
2021/12/30 18:15:20;;;;;;;3.20;2.03;;;;;;;;;;5112500;28;20072;-75
2021/12/30 18:17:46;;;;;;;2.92;1.88;;;;;;;;;;5114234;27;20110;-75
2021/12/30 18:20:13;;;;;;;4.80;1.98;;;;;;;;;;5112443;28;20034;-75
2021/12/30 18:22:39;;;;;;;6.97;2.35;;;;;;;;;;5113724;28;20080;-75
2021/12/30 18:25:07;;;;;;;3.10;2.00;;;;;;;;;;5113517;28;20024;-75
2021/12/30 18:27:33;;;;;;;3.35;2.40;;;;;;;;;;5113494;28;20043;-75
2021/12/30 18:30:00;;;;;;;4.35;1.85;;;;;;;;;;5113696;28;20106;-75
2021/12/30 18:32:27;;;;;;;3.72;2.28;;;;;;;;;;5113654;28;20436;-75
2021/12/30 18:34:54;;;;;;;4.25;2.50;;;;;;;;;;5113745;28;20027;-75
2021/12/30 18:37:20;;;;;;;3.95;2.30;;;;;;;;;;5113590;28;20031;-75
2021/12/30 18:39:46;;;;;;;4.05;2.40;;;;;;;;;;5113585;28;20069;-75
2021/12/30 18:42:14;;;;;;;4.50;2.97;;;;;;;;;;5113259;28;20032;-75
2021/12/30 18:44:40;;;;;;;4.65;2.55;;;;;;;;;;5113700;28;20394;-75
2021/12/30 18:47:07;;;;;;;4.13;2.53;;;;;;;;;;5113286;28;20031;-75
2021/12/30 18:49:33;;;;;;;6.38;2.95;;;;;;;;;;5113543;28;20031;-74
2021/12/30 18:51:59;;;;;;;6.55;2.90;;;;;;;;;;5113819;28;20043;-75
2021/12/30 18:54:26;;;;;;;7.35;3.20;;;;;;;;;;5111976;28;20399;-75
2021/12/30 18:56:52;;;;;;;5.28;3.13;;;;;;;;;;5113135;28;20042;-75
2021/12/30 18:59:19;;;;;;;5.97;3.15;;;;;;;;;;5113048;28;20016;-75
2021/12/30 19:01:45;;;;;;;6.43;3.78;;;;;;;;;;5112888;28;20020;-75
2021/12/30 19:04:11;;;;;;;6.57;3.97;;;;;;;;;;5112913;28;20398;-75
2021/12/30 19:06:37;;;;;;;4.47;3.45;;;;;;;;;;5111571;28;20126;-75
2021/12/30 19:09:04;;;;;;;4.80;3.42;;;;;;;;;;5112741;28;20281;-75
2021/12/30 19:11:30;;;;;;;5.63;3.83;;;;;;;;;;5112869;28;20065;-75
2021/12/30 19:13:56;;;;;;;4.80;3.42;;;;;;;;;;5113297;28;20024;-75
2021/12/30 19:16:23;;;;;;;9.80;3.90;;;;;;;;;;5112848;28;20383;-75
2021/12/30 19:18:50;;;;;;;5.00;3.83;;;;;;;;;;5112804;28;20073;-75
2021/12/30 19:21:16;;;;;;;5.22;3.65;;;;;;;;;;5111496;28;20028;-75
2021/12/30 19:23:43;;;;;;;7.95;3.72;;;;;;;;;;5112800;28;20018;-75
2021/12/30 19:26:10;;;;;;;7.57;3.30;;;;;;;;;;5112684;28;20112;-75
2021/12/30 19:28:37;;;;;;;6.47;4.13;;;;;;;;;;5112236;28;20047;-75
2021/12/30 19:31:05;;;;;;;7.28;3.95;;;;;;;;;;5113029;28;20031;-75
2021/12/30 19:33:32;;;;;;;7.40;4.25;;;;;;;;;;5112669;28;20019;-75
2021/12/30 19:35:59;;;;;;;5.22;3.60;;;;;;;;;;5112879;28;20038;-75
2021/12/30 19:38:26;;;;;;;7.97;4.10;;;;;;;;;;5094502;28;20047;-75
2021/12/30 19:40:52;;;;;;;5.43;3.65;;;;;;;;;;5112781;28;20043;-75
2021/12/30 19:43:18;;;;;;;6.53;3.63;;;;;;;;;;5112764;28;20114;-75
2021/12/30 19:45:45;;;;;;;6.45;4.00;;;;;;;;;;5094385;28;20512;-75
2021/12/30 19:48:14;;;;;;;5.22;3.83;;;;;;;;;;5112910;28;20383;-75
2021/12/30 19:50:41;;;;;;;4.93;3.25;;;;;;;;;;5112699;28;20076;-75
2021/12/30 19:53:07;;;;;;;6.53;3.70;;;;;;;;;;5112794;28;20034;-75
2021/12/30 19:55:34;;;;;;;5.70;4.00;;;;;;;;;;5112264;28;20096;-75
2021/12/30 19:58:00;;;;;;;5.60;3.58;;;;;;;;;;5112576;28;20031;-75
2021/12/30 20:00:28;;;;;;;6.32;4.18;;;;;;;;;;5112456;28;20486;-75
2021/12/30 20:02:55;;;;;;;9.20;3.88;;;;;;;;;;5112475;28;20039;-75
2021/12/30 20:05:21;;;;;;;6.38;3.50;;;;;;;;;;5112365;28;20512;-75
2021/12/30 20:07:47;;;;;;;6.25;4.00;;;;;;;;;;5112309;28;20103;-75
2021/12/30 20:10:16;;;;;;;6.10;4.10;;;;;;;;;;5112582;28;20024;-75
2021/12/30 20:12:43;;;;;;;5.72;3.90;;;;;;;;;;5112250;28;20498;-75
2021/12/30 20:15:09;;;;;;;6.68;3.90;;;;;;;;;;5114800;28;20019;-75
2021/12/30 20:17:36;;;;;;;6.53;4.43;;;;;;;;;;5116291;28;20587;-75
2021/12/30 20:20:06;;;;;;;5.95;4.57;;;;;;;;;;5116022;28;20516;-75
2021/12/30 20:22:33;;;;;;;5.95;4.07;;;;;;;;;;5116181;28;20394;-75
2021/12/30 20:24:59;;;;;;;7.05;4.75;;;;;;;;;;5116133;28;20034;-75
2021/12/30 20:27:28;;;;;;;8.20;4.72;;;;;;;;;;5115869;27;20096;-75
2021/12/30 20:29:54;;;;;;;8.40;5.10;;;;;;;;;;5116114;28;20046;-75
2021/12/30 20:32:20;;;;;;;5.93;4.50;;;;;;;;;;5115965;28;20016;-75
2021/12/30 20:34:46;;;;;;;7.10;5.18;;;;;;;;;;5115874;28;20019;-75
2021/12/30 20:37:12;;;;;;;8.05;5.10;;;;;;;;;;5115880;28;20102;-75
2021/12/30 20:39:38;;;;;;;6.65;5.22;;;;;;;;;;5115784;28;20027;-75
2021/12/30 20:42:04;;;;;;;10.23;5.88;;;;;;;;;;5116037;28;20055;-75
2021/12/30 20:44:32;;;;;;;6.95;5.28;;;;;;;;;;5115857;28;20024;-75
2021/12/30 20:46:58;;;;;;;7.18;4.72;;;;;;;;;;5115868;28;20402;-75
2021/12/30 20:49:25;;;;;;;9.55;5.35;;;;;;;;;;5115604;28;20016;-75
2021/12/30 20:51:51;;;;;;;7.50;5.65;;;;;;;;;;5115524;28;20394;-75
2021/12/30 20:54:17;;;;;;;8.50;5.57;;;;;;;;;;5115511;28;20024;-75
2021/12/30 20:56:44;;;;;;;8.50;5.25;;;;;;;;;;5115289;28;20474;-75
2021/12/30 20:59:10;;;;;;;9.07;5.15;;;;;;;;;;5115124;28;20047;-75
2021/12/30 21:01:36;;;;;;;6.75;5.20;;;;;;;;;;5115309;28;20461;-75
2021/12/30 21:04:04;;;;;;;7.50;5.28;;;;;;;;;;5115440;28;20027;-75
2021/12/30 21:06:30;;;;;;;8.75;5.32;;;;;;;;;;5115064;28;20024;-75
2021/12/30 21:08:57;;;;;;;6.50;5.15;;;;;;;;;;5096709;28;20027;-75
2021/12/30 21:11:24;;;;;;;6.90;5.25;;;;;;;;;;5115222;28;20486;-75
2021/12/30 21:13:52;;;;;;;7.20;5.43;;;;;;;;;;5115447;28;20028;-75
2021/12/30 21:16:19;;;;;;;7.07;5.00;;;;;;;;;;5115022;28;20020;-75
2021/12/30 21:18:46;;;;;;;6.20;4.82;;;;;;;;;;5115374;28;20074;-75
2021/12/30 21:21:12;;;;;;;7.40;5.15;;;;;;;;;;5096888;28;20019;-75
2021/12/30 21:23:38;;;;;;;5.82;4.65;;;;;;;;;;5114922;28;20024;-75
2021/12/30 21:26:04;;;;;;;7.03;5.07;;;;;;;;;;5114765;28;20023;-75
2021/12/30 21:28:31;;;;;;;6.82;4.90;;;;;;;;;;5114617;28;20131;-75
2021/12/30 21:30:58;;;;;;;7.28;4.95;;;;;;;;;;5114809;28;20027;-75
2021/12/30 21:33:24;;;;;;;6.40;5.00;;;;;;;;;;5114572;28;20398;-75
2021/12/30 21:35:51;;;;;;;5.72;4.13;;;;;;;;;;5114598;28;20019;-75
2021/12/30 21:38:17;;;;;;;6.82;5.00;;;;;;;;;;5114800;28;20043;-75
2021/12/30 21:40:48;;;;;;;6.93;4.93;;;;;;;;;;5114561;28;20449;-75
2021/12/30 21:43:15;;;;;;;7.80;4.70;;;;;;;;;;5114706;28;20028;-75
2021/12/30 21:45:41;;;;;;;6.15;4.57;;;;;;;;;;5114490;28;20080;-75
2021/12/30 21:48:07;;;;;;;6.90;4.65;;;;;;;;;;5114705;28;20036;-75
2021/12/30 21:50:34;;;;;;;5.50;4.13;;;;;;;;;;5096166;28;20026;-75
2021/12/30 21:53:00;;;;;;;5.57;4.43;;;;;;;;;;5114752;28;20020;-75
2021/12/30 21:55:28;;;;;;;5.95;4.65;;;;;;;;;;5114140;28;20039;-75
2021/12/30 21:57:54;;;;;;;5.85;4.00;;;;;;;;;;5096083;28;20091;-75
2021/12/30 22:00:21;;;;;;;5.10;3.95;;;;;;;;;;5114099;28;20027;-75
2021/12/30 22:02:48;;;;;;;6.63;4.38;;;;;;;;;;5114298;28;20031;-75
2021/12/30 22:05:15;;;;;;;4.90;3.97;;;;;;;;;;5095900;28;20472;-75
2021/12/30 22:07:43;;;;;;;5.65;3.88;;;;;;;;;;5113809;28;20032;-75
2021/12/30 22:10:10;;;;;;;5.53;4.43;;;;;;;;;;5113903;28;20023;-75
2021/12/30 22:12:36;;;;;;;4.93;3.90;;;;;;;;;;5095328;28;20573;-75
2021/12/30 22:15:02;;;;;;;5.15;3.90;;;;;;;;;;5113852;28;20440;-75
2021/12/30 22:17:28;;;;;;;4.93;3.80;;;;;;;;;;5113725;28;20032;-75
2021/12/30 22:19:54;;;;;;;4.93;3.78;;;;;;;;;;5113647;28;20035;-75
2021/12/30 22:22:20;;;;;;;4.95;4.03;;;;;;;;;;5113668;28;20047;-75
2021/12/30 22:24:46;;;;;;;4.80;3.78;;;;;;;;;;5113454;28;20038;-75
2021/12/30 22:27:12;;;;;;;7.30;3.90;;;;;;;;;;5113410;28;20029;-75
2021/12/30 22:29:38;;;;;;;6.47;3.70;;;;;;;;;;5113538;28;20062;-75
2021/12/30 22:32:05;;;;;;;5.15;3.75;;;;;;;;;;5095463;28;20023;-75
2021/12/30 22:34:31;;;;;;;5.15;3.53;;;;;;;;;;5113581;28;20103;-75
2021/12/30 22:36:57;;;;;;;5.03;4.15;;;;;;;;;;5112889;28;20039;-75
2021/12/30 22:39:23;;;;;;;4.72;3.78;;;;;;;;;;5113487;28;20466;-75
2021/12/30 22:41:49;;;;;;;4.72;3.45;;;;;;;;;;5113295;28;20024;-75
2021/12/30 22:44:16;;;;;;;4.90;3.60;;;;;;;;;;5113605;28;20492;-75
2021/12/30 22:46:42;;;;;;;5.45;3.55;;;;;;;;;;5113358;28;20023;-75
2021/12/30 22:49:10;;;;;;;5.18;3.80;;;;;;;;;;5113344;28;20024;-75
2021/12/30 22:51:36;;;;;;;4.15;3.25;;;;;;;;;;5113140;28;20402;-75
2021/12/30 22:54:02;;;;;;;6.05;3.63;;;;;;;;;;5113220;28;20020;-75
2021/12/30 22:56:28;;;;;;;5.85;3.70;;;;;;;;;;5113133;28;20107;-75
2021/12/30 22:58:54;;;;;;;7.15;3.33;;;;;;;;;;5113212;28;20106;-75
2021/12/30 23:01:20;;;;;;;4.53;3.20;;;;;;;;;;5113273;28;20027;-75
2021/12/30 23:03:50;;;;;;;4.05;3.13;;;;;;;;;;5094834;28;20030;-75
2021/12/30 23:06:17;;;;;;;4.82;3.38;;;;;;;;;;5112922;28;20032;-75
2021/12/30 23:08:44;;;;;;;6.00;3.50;;;;;;;;;;5113241;28;20077;-75
2021/12/30 23:11:10;;;;;;;4.75;3.25;;;;;;;;;;5113056;28;20590;-75
2021/12/30 23:13:36;;;;;;;4.90;3.53;;;;;;;;;;5112757;28;20399;-75
2021/12/30 23:16:04;;;;;;;4.03;3.08;;;;;;;;;;5112857;28;20058;-75
2021/12/30 23:18:30;;;;;;;4.25;3.22;;;;;;;;;;5112654;28;20046;-75
2021/12/30 23:20:57;;;;;;;5.25;3.40;;;;;;;;;;5112462;28;20020;-75
2021/12/30 23:23:23;;;;;;;4.03;2.85;;;;;;;;;;5112575;28;20061;-75
2021/12/30 23:25:50;;;;;;;3.80;2.90;;;;;;;;;;5112705;28;20035;-75
2021/12/30 23:28:16;;;;;;;4.28;3.08;;;;;;;;;;5112662;28;20042;-75
2021/12/30 23:30:43;;;;;;;4.50;3.00;;;;;;;;;;5112565;28;20020;-75
2021/12/30 23:33:09;;;;;;;3.88;2.60;;;;;;;;;;5112952;28;20023;-75
2021/12/30 23:35:35;;;;;;;4.35;2.85;;;;;;;;;;5112670;28;20020;-75
2021/12/30 23:38:02;;;;;;;3.88;2.78;;;;;;;;;;5112584;28;20027;-75
2021/12/30 23:40:28;;;;;;;4.18;3.00;;;;;;;;;;5112512;28;20027;-75
2021/12/30 23:42:54;;;;;;;3.97;2.65;;;;;;;;;;5112663;28;20081;-75
2021/12/30 23:45:21;;;;;;;3.78;2.88;;;;;;;;;;5112502;28;20056;-75
2021/12/30 23:47:47;;;;;;;4.30;2.85;;;;;;;;;;5112460;28;20024;-75
2021/12/30 23:50:13;;;;;;;4.55;3.33;;;;;;;;;;5115678;28;20500;-75
2021/12/30 23:52:40;;;;;;;5.40;2.70;;;;;;;;;;5116779;28;20398;-75
2021/12/30 23:55:07;;;;;;;3.53;2.83;;;;;;;;;;5116803;28;20032;-75
2021/12/30 23:57:33;;;;;;;4.57;3.15;;;;;;;;;;5116519;28;20027;-75
2021/12/30 23:59:59;;;;;;;4.75;2.58;;;;;;;;;;5116529;28;20030;-75
